createdAt,value
2019-02-21T00:01:47.149Z,-0.80
2019-02-21T00:04:15.645Z,-0.80
2019-02-21T00:06:44.073Z,-0.80
2019-02-21T00:09:12.570Z,-0.80
2019-02-21T00:11:41.032Z,-0.90
2019-02-21T00:14:09.434Z,-0.90
2019-02-21T00:16:37.855Z,-0.90
2019-02-21T00:19:06.337Z,-0.90
2019-02-21T00:21:34.749Z,-0.80
2019-02-21T00:24:03.268Z,-0.90
2019-02-21T00:26:31.684Z,-0.90
2019-02-21T00:29:00.103Z,-0.90
2019-02-21T00:31:28.537Z,-0.90
2019-02-21T00:33:56.937Z,-0.90
2019-02-21T00:36:25.363Z,-0.90
2019-02-21T00:38:53.763Z,-0.90
2019-02-21T00:41:22.190Z,-0.90
2019-02-21T00:43:50.581Z,-0.90
2019-02-21T00:46:19.151Z,-1.00
2019-02-21T00:48:47.649Z,-1.10
2019-02-21T00:51:16.073Z,-1.00
2019-02-21T00:53:44.502Z,-1.00
2019-02-21T00:56:12.920Z,-1.00
2019-02-21T00:58:41.318Z,-1.10
2019-02-21T01:01:09.753Z,-1.10
2019-02-21T01:03:38.193Z,-1.10
2019-02-21T01:06:06.604Z,-1.10
2019-02-21T01:08:35.017Z,-1.10
2019-02-21T01:11:03.722Z,-1.10
2019-02-21T01:13:32.135Z,-1.00
2019-02-21T01:16:00.556Z,-1.10
2019-02-21T01:18:29.174Z,-1.10
2019-02-21T01:20:57.627Z,-1.10
2019-02-21T01:23:26.059Z,-1.10
2019-02-21T01:25:54.468Z,-1.10
2019-02-21T01:28:22.873Z,-1.20
2019-02-21T01:30:57.031Z,-1.10
2019-02-21T01:33:21.615Z,-1.00
2019-02-21T01:35:50.073Z,-0.90
2019-02-21T01:38:18.481Z,-0.90
2019-02-21T01:40:46.918Z,-0.90
2019-02-21T01:43:15.309Z,-0.90
2019-02-21T01:45:43.751Z,-0.90
2019-02-21T01:48:12.169Z,-1.00
2019-02-21T01:50:40.637Z,-1.00
2019-02-21T01:53:09.041Z,-1.10
2019-02-21T01:55:37.462Z,-1.20
2019-02-21T01:58:05.875Z,-1.20
2019-02-21T02:00:34.566Z,-1.10
2019-02-21T02:03:02.981Z,-1.10
2019-02-21T02:05:31.449Z,-1.20
2019-02-21T02:07:59.885Z,-1.20
2019-02-21T02:10:28.538Z,-1.20
2019-02-21T02:12:56.962Z,-1.20
2019-02-21T02:15:25.368Z,-1.30
2019-02-21T02:17:53.790Z,-1.20
2019-02-21T02:20:22.310Z,-1.20
2019-02-21T02:22:50.733Z,-1.20
2019-02-21T02:25:19.158Z,-1.30
2019-02-21T02:27:47.633Z,-1.40
2019-02-21T02:30:16.351Z,-1.30
2019-02-21T02:32:44.876Z,-1.40
2019-02-21T02:35:14.017Z,-1.40
2019-02-21T02:37:42.438Z,-1.40
2019-02-21T02:40:11.048Z,-1.50
2019-02-21T02:42:39.447Z,-1.40
2019-02-21T02:45:08.069Z,-1.40
2019-02-21T02:47:36.631Z,-1.40
2019-02-21T02:50:07.325Z,-1.40
2019-02-21T02:52:35.750Z,-1.30
2019-02-21T02:55:05.221Z,-1.20
2019-02-21T02:57:33.878Z,-1.10
2019-02-21T03:00:03.102Z,-1.00
2019-02-21T03:02:33.183Z,-0.90
2019-02-21T03:05:01.639Z,-0.80
2019-02-21T03:07:30.363Z,-0.70
2019-02-21T03:09:59.042Z,-0.50
2019-02-21T03:12:31.978Z,-0.50
2019-02-21T03:15:03.635Z,-0.40
2019-02-21T03:17:32.347Z,-0.40
2019-02-21T03:20:00.835Z,-0.30
2019-02-21T03:22:30.491Z,-0.30
2019-02-21T03:25:00.538Z,-0.20
2019-02-21T03:27:29.121Z,-0.20
2019-02-21T03:32:50.417Z,0.00
2019-02-21T03:35:18.966Z,0.10
2019-02-21T03:37:47.368Z,0.10
2019-02-21T03:40:15.961Z,0.10
2019-02-21T03:42:44.569Z,0.20
2019-02-21T03:45:18.767Z,0.20
2019-02-21T03:47:49.649Z,0.30
2019-02-21T03:50:18.166Z,0.30
2019-02-21T03:52:46.659Z,0.20
2019-02-21T03:55:16.842Z,0.20
2019-02-21T03:57:45.292Z,0.30
2019-02-21T04:00:13.907Z,0.30
2019-02-21T04:02:42.307Z,0.30
2019-02-21T04:05:12.283Z,0.20
2019-02-21T04:07:40.679Z,0.20
2019-02-21T04:10:09.507Z,0.30
2019-02-21T04:12:38.626Z,0.40
2019-02-21T04:15:09.736Z,0.50
2019-02-21T04:17:38.207Z,0.50
2019-02-21T04:20:08.184Z,0.60
2019-02-21T04:22:36.654Z,0.60
2019-02-21T04:25:07.358Z,0.50
2019-02-21T04:27:38.264Z,0.60
2019-02-21T04:30:07.564Z,0.60
2019-02-21T04:32:38.170Z,0.60
2019-02-21T04:35:08.937Z,0.60
2019-02-21T04:37:37.457Z,0.70
2019-02-21T04:40:07.172Z,0.70
2019-02-21T04:42:35.685Z,0.70
2019-02-21T04:45:04.601Z,0.70
2019-02-21T04:47:35.476Z,0.80
2019-02-21T04:50:05.078Z,0.70
2019-02-21T04:52:33.603Z,0.70
2019-02-21T04:55:02.066Z,0.70
2019-02-21T04:57:32.294Z,0.60
2019-02-21T05:00:05.411Z,0.70
2019-02-21T05:02:34.078Z,0.80
2019-02-21T05:05:02.559Z,0.80
2019-02-21T05:07:31.057Z,0.90
2019-02-21T05:09:59.495Z,0.80
2019-02-21T05:12:28.141Z,0.80
2019-02-21T05:14:56.600Z,0.80
2019-02-21T05:17:25.042Z,0.80
2019-02-21T05:19:53.476Z,0.80
2019-02-21T05:22:21.945Z,0.70
2019-02-21T05:24:50.384Z,0.70
2019-02-21T05:27:20.711Z,0.70
2019-02-21T05:29:49.127Z,0.70
2019-02-21T05:32:19.178Z,0.70
2019-02-21T05:34:49.257Z,0.70
2019-02-21T05:37:37.639Z,0.60
2019-02-21T05:40:20.321Z,0.70
2019-02-21T05:42:53.093Z,0.80
2019-02-21T05:45:38.002Z,0.70
2019-02-21T05:48:10.901Z,0.70
2019-02-21T05:50:40.984Z,0.70
2019-02-21T05:53:11.088Z,0.70
2019-02-21T05:55:41.134Z,0.70
2019-02-21T05:58:14.006Z,0.70
2019-02-21T06:00:46.876Z,0.70
2019-02-21T06:03:19.926Z,0.80
2019-02-21T06:06:06.227Z,0.80
2019-02-21T06:08:53.061Z,0.90
2019-02-21T06:11:35.459Z,0.80
2019-02-21T06:14:08.719Z,0.80
2019-02-21T06:16:41.510Z,0.80
2019-02-21T06:19:14.228Z,0.80
2019-02-21T06:21:44.345Z,0.80
2019-02-21T06:24:17.310Z,0.70
2019-02-21T06:26:47.606Z,0.60
2019-02-21T06:29:17.906Z,0.60
2019-02-21T06:31:46.313Z,0.60
2019-02-21T06:34:14.710Z,0.50
2019-02-21T06:36:43.113Z,0.40
2019-02-21T06:39:11.937Z,0.30
2019-02-21T06:41:42.680Z,0.20
2019-02-21T06:44:10.593Z,0.20
2019-02-21T06:46:38.995Z,0.10
2019-02-21T06:49:07.405Z,0.10
2019-02-21T06:51:35.837Z,0.10
2019-02-21T06:54:04.297Z,0.10
2019-02-21T06:56:32.966Z,0.20
2019-02-21T06:59:01.370Z,0.30
2019-02-21T07:01:29.834Z,0.40
2019-02-21T07:03:58.329Z,0.40
2019-02-21T07:06:32.049Z,0.50
2019-02-21T07:08:57.125Z,0.70
2019-02-21T07:11:25.546Z,0.80
2019-02-21T07:13:53.981Z,0.80
2019-02-21T07:16:22.443Z,0.90
2019-02-21T07:18:50.853Z,1.00
2019-02-21T07:21:19.275Z,1.10
2019-02-21T07:23:47.685Z,1.30
2019-02-21T07:26:16.103Z,1.30
2019-02-21T07:28:44.767Z,1.50
2019-02-21T07:31:13.184Z,1.60
2019-02-21T07:33:41.586Z,1.60
2019-02-21T07:36:11.082Z,1.70
2019-02-21T07:38:39.686Z,1.60
2019-02-21T07:41:08.457Z,1.50
2019-02-21T07:43:36.941Z,1.50
2019-02-21T07:46:06.927Z,1.50
2019-02-21T07:48:36.454Z,1.60
2019-02-21T07:51:05.191Z,1.60
2019-02-21T07:53:33.607Z,1.70
2019-02-21T07:56:02.052Z,1.70
2019-02-21T07:58:30.478Z,1.70
2019-02-21T08:00:58.889Z,1.80
2019-02-21T08:03:31.882Z,1.80
2019-02-21T08:05:57.755Z,1.90
2019-02-21T08:08:26.177Z,2.10
2019-02-21T08:10:54.608Z,2.20
2019-02-21T08:13:23.255Z,2.30
2019-02-21T08:15:51.767Z,2.40
2019-02-21T08:18:20.229Z,2.50
2019-02-21T08:20:48.613Z,2.60
2019-02-21T08:23:17.036Z,2.70
2019-02-21T08:25:45.435Z,2.70
2019-02-21T08:28:13.939Z,2.80
2019-02-21T08:30:42.554Z,2.90
2019-02-21T08:33:15.568Z,2.90
2019-02-21T08:35:43.981Z,2.80
2019-02-21T08:38:12.394Z,2.90
2019-02-21T08:40:40.793Z,3.00
2019-02-21T08:43:09.194Z,3.20
2019-02-21T08:45:37.628Z,3.30
2019-02-21T08:48:06.259Z,3.70
2019-02-21T08:50:34.665Z,3.80
2019-02-21T08:53:03.121Z,3.80
2019-02-21T08:55:31.501Z,3.90
2019-02-21T08:57:59.910Z,4.00
2019-02-21T09:00:28.298Z,4.00
2019-02-21T09:02:56.715Z,4.20
2019-02-21T09:05:25.123Z,4.20
2019-02-21T09:07:53.522Z,4.20
2019-02-21T09:10:21.950Z,4.30
2019-02-21T09:12:50.361Z,4.40
2019-02-21T09:15:19.157Z,4.40
2019-02-21T09:17:47.560Z,4.60
2019-02-21T09:20:15.990Z,4.70
2019-02-21T09:22:44.445Z,4.70
2019-02-21T09:25:13.914Z,4.80
2019-02-21T09:27:42.394Z,5.00
2019-02-21T09:30:13.678Z,5.40
2019-02-21T09:32:42.173Z,5.70
2019-02-21T09:35:10.593Z,5.90
2019-02-21T09:37:39.095Z,5.70
2019-02-21T09:40:10.838Z,5.90
2019-02-21T09:42:39.499Z,6.00
2019-02-21T09:45:14.919Z,5.80
2019-02-21T09:47:44.671Z,5.70
2019-02-21T09:50:24.112Z,5.60
2019-02-21T09:52:57.515Z,5.50
2019-02-21T09:58:21.887Z,5.60
2019-02-21T10:00:51.678Z,5.80
2019-02-21T10:03:20.379Z,6.00
2019-02-21T10:05:49.993Z,6.10
2019-02-21T10:08:26.871Z,6.10
2019-02-21T10:10:55.575Z,6.30
2019-02-21T10:13:33.386Z,6.50
2019-02-21T10:16:04.630Z,6.70
2019-02-21T10:18:37.028Z,7.00
2019-02-21T10:21:07.091Z,7.20
2019-02-21T10:23:35.634Z,7.50
2019-02-21T10:26:04.348Z,8.20
2019-02-21T10:28:34.821Z,8.50
2019-02-21T10:31:03.796Z,8.80
2019-02-21T10:33:34.408Z,8.50
2019-02-21T10:36:08.192Z,8.70
2019-02-21T10:38:37.217Z,8.80
2019-02-21T10:41:08.861Z,9.00
2019-02-21T10:43:40.458Z,9.30
2019-02-21T10:49:01.639Z,9.60
2019-02-21T10:51:32.067Z,10.20
2019-02-21T10:54:00.956Z,11.00
2019-02-21T10:56:36.538Z,11.20
2019-02-21T10:59:05.884Z,11.20
2019-02-21T11:01:38.795Z,10.90
2019-02-21T11:04:14.953Z,11.40
2019-02-21T11:06:40.054Z,11.60
2019-02-21T11:09:24.666Z,11.70
2019-02-21T11:11:55.605Z,12.20
2019-02-21T11:14:24.516Z,12.30
2019-02-21T11:16:57.585Z,12.20
2019-02-21T11:19:28.088Z,11.90
2019-02-21T11:21:56.875Z,11.70
2019-02-21T11:24:27.537Z,11.80
2019-02-21T11:29:44.156Z,11.90
2019-02-21T11:35:08.539Z,11.70
2019-02-21T11:37:43.275Z,12.60
2019-02-21T11:43:05.052Z,15.10
2019-02-21T11:45:38.200Z,16.60
2019-02-21T11:48:09.188Z,16.70
2019-02-21T11:50:40.361Z,16.10
2019-02-21T11:53:19.790Z,15.10
2019-02-21T11:55:50.118Z,13.90
2019-02-21T11:58:20.225Z,13.20
2019-02-21T12:00:52.722Z,13.00
2019-02-21T12:03:23.149Z,13.40
2019-02-21T12:05:53.767Z,14.40
2019-02-21T12:08:25.639Z,15.70
2019-02-21T12:10:57.138Z,16.40
2019-02-21T12:13:30.474Z,16.70
2019-02-21T12:15:59.683Z,18.10
2019-02-21T12:21:22.758Z,16.30
2019-02-21T12:23:51.720Z,16.70
2019-02-21T12:26:22.705Z,17.40
2019-02-21T12:28:53.569Z,16.60
2019-02-21T12:31:28.768Z,16.60
2019-02-21T12:33:59.193Z,16.30
2019-02-21T12:36:29.679Z,15.60
2019-02-21T12:38:59.862Z,15.50
2019-02-21T12:41:37.250Z,14.70
2019-02-21T12:44:06.723Z,14.20
2019-02-21T12:46:39.965Z,13.90
2019-02-21T12:49:13.639Z,14.00
2019-02-21T12:54:35.335Z,13.50
2019-02-21T12:57:05.275Z,13.70
2019-02-21T12:59:33.995Z,14.00
2019-02-21T13:02:06.542Z,14.40
2019-02-21T13:04:38.418Z,14.20
2019-02-21T13:07:09.932Z,14.10
2019-02-21T13:09:41.197Z,13.90
2019-02-21T13:15:00.420Z,13.90
2019-02-21T13:17:34.697Z,14.20
2019-02-21T13:22:54.494Z,14.60
2019-02-21T13:25:28.529Z,14.80
2019-02-21T13:27:59.063Z,14.50
2019-02-21T13:30:33.979Z,14.10
2019-02-21T13:38:50.398Z,13.60
2019-02-21T13:41:20.770Z,13.20
2019-02-21T13:43:50.782Z,13.20
2019-02-21T13:46:21.492Z,13.00
2019-02-21T13:48:50.678Z,13.00
2019-02-21T13:51:21.313Z,13.00
2019-02-21T13:56:40.418Z,13.20
2019-02-21T13:59:15.004Z,13.20
2019-02-21T14:01:46.916Z,13.20
2019-02-21T14:04:15.682Z,13.30
2019-02-21T14:06:48.712Z,13.40
2019-02-21T14:09:20.765Z,13.10
2019-02-21T14:11:49.348Z,13.00
2019-02-21T14:14:17.903Z,12.90
2019-02-21T14:16:46.987Z,13.00
2019-02-21T14:19:24.519Z,13.10
2019-02-21T14:21:52.987Z,13.20
2019-02-21T14:24:21.411Z,13.00
2019-02-21T14:26:55.793Z,12.90
2019-02-21T14:29:24.259Z,12.80
2019-02-21T14:31:52.757Z,12.90
2019-02-21T14:34:21.226Z,13.20
2019-02-21T14:36:49.706Z,13.10
2019-02-21T14:39:20.885Z,13.00
2019-02-21T14:41:51.090Z,13.00
2019-02-21T14:44:19.515Z,13.10
2019-02-21T14:46:50.165Z,13.20
2019-02-21T14:49:18.070Z,13.10
2019-02-21T14:51:46.462Z,13.30
2019-02-21T14:54:20.278Z,13.20
2019-02-21T14:56:48.830Z,13.20
2019-02-21T14:59:20.033Z,13.00
2019-02-21T15:01:47.782Z,12.90
2019-02-21T15:04:16.254Z,12.80
2019-02-21T15:06:46.781Z,12.60
2019-02-21T15:09:16.448Z,12.60
2019-02-21T15:11:49.031Z,12.50
2019-02-21T15:14:17.488Z,12.50
2019-02-21T15:16:46.048Z,12.50
2019-02-21T15:19:14.538Z,12.50
2019-02-21T15:21:43.013Z,12.30
2019-02-21T15:24:13.109Z,12.20
2019-02-21T15:26:46.789Z,12.20
2019-02-21T15:29:16.440Z,12.00
2019-02-21T15:31:45.036Z,12.00
2019-02-21T15:34:13.513Z,12.00
2019-02-21T15:36:42.028Z,11.90
2019-02-21T15:39:10.756Z,11.90
2019-02-21T15:41:44.259Z,11.90
2019-02-21T15:44:12.721Z,11.80
2019-02-21T15:46:46.842Z,11.70
2019-02-21T15:52:03.138Z,11.70
2019-02-21T15:54:40.345Z,11.60
2019-02-21T15:57:08.827Z,11.60
2019-02-21T15:59:38.797Z,11.60
2019-02-21T16:02:14.226Z,11.60
2019-02-21T16:04:51.827Z,11.50
2019-02-21T16:07:24.103Z,11.50
2019-02-21T16:09:53.355Z,11.50
2019-02-21T16:12:27.975Z,11.30
2019-02-21T16:15:01.712Z,11.30
2019-02-21T16:17:43.310Z,11.20
2019-02-21T16:20:21.527Z,11.20
2019-02-21T16:22:54.633Z,11.10
2019-02-21T16:25:34.637Z,11.00
2019-02-21T16:28:04.780Z,11.00
2019-02-21T16:30:48.092Z,10.90
2019-02-21T16:38:56.596Z,10.80
2019-02-21T16:41:36.156Z,10.80
2019-02-21T16:44:09.949Z,10.80
2019-02-21T16:46:40.178Z,10.70
2019-02-21T16:49:09.212Z,10.60
2019-02-21T16:51:40.368Z,10.50
2019-02-21T16:54:08.968Z,10.50
2019-02-21T16:56:37.461Z,10.30
2019-02-21T16:59:11.011Z,10.20
2019-02-21T17:01:39.983Z,10.10
2019-02-21T17:04:11.614Z,10.00
2019-02-21T17:09:36.495Z,9.90
2019-02-21T17:12:10.822Z,9.80
2019-02-21T17:14:48.494Z,9.60
2019-02-21T17:17:30.214Z,9.50
2019-02-21T17:20:07.580Z,9.40
2019-02-21T17:25:49.904Z,9.20
2019-02-21T17:28:30.302Z,9.10
2019-02-21T17:31:37.182Z,9.00
2019-02-21T17:33:45.922Z,8.90
2019-02-21T17:36:15.616Z,8.80
2019-02-21T17:38:46.930Z,8.60
2019-02-21T17:44:11.415Z,8.40
2019-02-21T17:46:46.958Z,8.20
2019-02-21T17:49:27.975Z,8.10
2019-02-21T17:52:01.110Z,8.10
2019-02-21T17:54:29.889Z,8.10
2019-02-21T17:57:05.469Z,8.00
2019-02-21T17:59:55.102Z,8.00
2019-02-21T18:02:23.543Z,7.90
2019-02-21T18:04:51.953Z,7.90
2019-02-21T18:07:20.362Z,7.80
2019-02-21T18:09:48.773Z,7.70
2019-02-21T18:12:17.194Z,7.70
2019-02-21T18:14:45.689Z,7.60
2019-02-21T18:17:14.115Z,7.60
2019-02-21T18:19:42.555Z,7.50
2019-02-21T18:22:11.035Z,7.40
2019-02-21T18:24:39.459Z,7.40
2019-02-21T18:27:07.856Z,7.30
2019-02-21T18:29:36.261Z,7.30
2019-02-21T18:32:04.669Z,7.30
2019-02-21T18:34:33.319Z,7.20
2019-02-21T18:37:01.833Z,7.20
2019-02-21T18:39:30.234Z,7.20
2019-02-21T18:41:58.666Z,7.30
2019-02-21T18:44:27.333Z,7.30
2019-02-21T18:46:55.751Z,7.30
2019-02-21T18:49:24.163Z,7.30
2019-02-21T18:51:52.646Z,7.30
2019-02-21T18:54:21.362Z,7.30
2019-02-21T18:56:50.003Z,7.30
2019-02-21T18:59:18.642Z,7.30
2019-02-21T19:01:47.052Z,7.30
2019-02-21T19:04:15.468Z,7.20
2019-02-21T19:06:43.884Z,7.30
2019-02-21T19:09:12.541Z,7.30
2019-02-21T19:11:40.959Z,7.30
2019-02-21T19:14:09.350Z,7.30
2019-02-21T19:16:37.875Z,7.30
2019-02-21T19:19:06.342Z,7.20
2019-02-21T19:21:34.741Z,7.20
2019-02-21T19:24:03.174Z,7.30
2019-02-21T19:26:31.570Z,7.30
2019-02-21T19:28:59.994Z,7.20
2019-02-21T19:31:28.397Z,7.20
2019-02-21T19:33:57.138Z,7.30
2019-02-21T19:36:25.855Z,7.20
2019-02-21T19:38:54.575Z,7.30
2019-02-21T19:41:23.254Z,7.30
2019-02-21T19:43:52.562Z,7.30
2019-02-21T19:46:21.215Z,7.30
2019-02-21T19:48:49.886Z,7.20
2019-02-21T19:51:18.451Z,7.20
2019-02-21T19:53:46.938Z,7.20
2019-02-21T19:56:15.337Z,7.60
2019-02-21T19:58:43.813Z,7.60
2019-02-21T20:01:12.311Z,7.60
2019-02-21T20:03:40.954Z,8.00
2019-02-21T20:06:09.402Z,8.00
2019-02-21T20:08:37.849Z,7.90
2019-02-21T20:11:08.147Z,8.00
2019-02-21T20:13:39.276Z,8.10
2019-02-21T20:16:07.787Z,8.20
2019-02-21T20:18:36.234Z,8.50
2019-02-21T20:21:05.007Z,8.60
2019-02-21T20:23:33.502Z,8.80
2019-02-21T20:26:01.976Z,8.80
2019-02-21T20:28:30.471Z,8.80
2019-02-21T20:30:59.116Z,8.70
2019-02-21T20:33:27.678Z,8.70
2019-02-21T20:35:56.618Z,8.60
2019-02-21T20:38:32.027Z,8.60
2019-02-21T20:40:55.479Z,8.50
2019-02-21T20:43:23.889Z,8.50
2019-02-21T20:45:53.483Z,8.50
2019-02-21T20:48:24.920Z,8.50
2019-02-21T20:50:57.129Z,8.40
2019-02-21T20:53:25.547Z,8.40
2019-02-21T20:55:53.970Z,8.40
2019-02-21T20:58:22.425Z,8.40
2019-02-21T21:00:51.135Z,8.40
2019-02-21T21:03:24.042Z,8.30
2019-02-21T21:05:52.576Z,8.30
2019-02-21T21:08:21.299Z,8.20
2019-02-21T21:10:49.859Z,8.20
2019-02-21T21:13:18.304Z,8.20
2019-02-21T21:15:48.942Z,8.20
2019-02-21T21:18:20.202Z,8.20
2019-02-21T21:20:53.236Z,8.20
2019-02-21T21:23:24.406Z,8.20
2019-02-21T21:25:56.349Z,8.10
2019-02-21T21:28:25.084Z,8.10
2019-02-21T21:30:55.104Z,8.10
2019-02-21T21:33:23.534Z,8.10
2019-02-21T21:35:52.302Z,8.00
2019-02-21T21:38:24.130Z,8.00
2019-02-21T21:40:51.044Z,7.90
2019-02-21T21:43:19.517Z,8.00
2019-02-21T21:45:47.922Z,8.00
2019-02-21T21:48:16.330Z,8.00
2019-02-21T21:50:45.034Z,8.00
2019-02-21T21:53:13.443Z,7.90
2019-02-21T21:55:42.078Z,8.00
2019-02-21T21:58:12.905Z,7.90
2019-02-21T22:00:41.041Z,7.80
2019-02-21T22:03:09.687Z,7.90
2019-02-21T22:05:38.161Z,7.80
2019-02-21T22:08:07.825Z,8.10
2019-02-21T22:10:36.237Z,8.10
2019-02-21T22:13:04.642Z,8.10
2019-02-21T22:15:33.045Z,8.20
2019-02-21T22:18:02.991Z,8.40
2019-02-21T22:20:31.389Z,8.40
2019-02-21T22:23:02.015Z,8.40
2019-02-21T22:25:29.934Z,8.40
2019-02-21T22:27:58.357Z,8.40
2019-02-21T22:30:26.772Z,8.50
2019-02-21T22:32:55.430Z,8.60
2019-02-21T22:35:24.079Z,8.60
2019-02-21T22:37:52.589Z,8.60
2019-02-21T22:40:21.378Z,8.50
2019-02-21T22:42:49.787Z,8.50
2019-02-21T22:45:18.182Z,8.50
2019-02-21T22:47:46.777Z,8.60
2019-02-21T22:50:16.803Z,8.80
2019-02-21T22:52:45.312Z,8.90
2019-02-21T22:55:13.794Z,8.90
2019-02-21T22:57:42.211Z,8.90
2019-02-21T23:00:54.252Z,9.10
2019-02-21T23:03:25.599Z,9.10
2019-02-21T23:06:00.225Z,9.00
2019-02-21T23:08:45.230Z,9.00
2019-02-21T23:11:13.878Z,9.00
2019-02-21T23:13:42.333Z,9.00
2019-02-21T23:16:10.853Z,9.00
2019-02-21T23:18:42.122Z,8.90
2019-02-21T23:21:10.547Z,9.00
2019-02-21T23:23:39.196Z,8.90
2019-02-21T23:26:07.648Z,8.90
2019-02-21T23:28:36.093Z,8.90
2019-02-21T23:31:04.631Z,8.90
2019-02-21T23:33:34.673Z,8.90
2019-02-21T23:36:03.453Z,8.90
2019-02-21T23:38:31.850Z,8.90
2019-02-21T23:41:00.331Z,8.80
2019-02-21T23:43:28.779Z,8.80
2019-02-21T23:45:57.468Z,8.90
2019-02-21T23:48:25.858Z,8.90
2019-02-21T23:50:54.270Z,8.90
2019-02-21T23:53:23.014Z,8.90
2019-02-21T23:55:51.418Z,8.80
2019-02-21T23:58:20.049Z,8.80
